sensor_id;sensor_type;location;lat;lon;timestamp;temperature;humidity
2300;DHT22;1158;48.750;9.078;2022-12-07T00:01:48;2.40;99.90
2300;DHT22;1158;48.750;9.078;2022-12-07T00:04:16;2.40;99.90
2300;DHT22;1158;48.750;9.078;2022-12-07T00:06:44;2.40;99.90
2300;DHT22;1158;48.750;9.078;2022-12-07T00:09:13;2.40;99.90
2300;DHT22;1158;48.750;9.078;2022-12-07T00:11:41;2.40;99.90
2300;DHT22;1158;48.750;9.078;2022-12-07T00:14:12;2.40;99.90
2300;DHT22;1158;48.750;9.078;2022-12-07T00:16:39;2.30;99.90
2300;DHT22;1158;48.750;9.078;2022-12-07T00:19:05;2.30;99.90
2300;DHT22;1158;48.750;9.078;2022-12-07T00:21:34;2.30;99.90
2300;DHT22;1158;48.750;9.078;2022-12-07T00:24:01;2.40;99.90
2300;DHT22;1158;48.750;9.078;2022-12-07T00:26:31;2.30;99.90
2300;DHT22;1158;48.750;9.078;2022-12-07T00:29:01;2.30;99.90
2300;DHT22;1158;48.750;9.078;2022-12-07T00:31:29;2.30;99.90
2300;DHT22;1158;48.750;9.078;2022-12-07T00:33:57;2.30;99.90
2300;DHT22;1158;48.750;9.078;2022-12-07T00:36:25;2.30;99.90
2300;DHT22;1158;48.750;9.078;2022-12-07T00:38:52;2.30;99.90
2300;DHT22;1158;48.750;9.078;2022-12-07T00:41:20;2.30;99.90
2300;DHT22;1158;48.750;9.078;2022-12-07T00:43:48;2.30;99.90
2300;DHT22;1158;48.750;9.078;2022-12-07T00:46:17;2.30;99.90
2300;DHT22;1158;48.750;9.078;2022-12-07T00:48:45;2.30;99.90
2300;DHT22;1158;48.750;9.078;2022-12-07T00:51:14;2.30;99.90
2300;DHT22;1158;48.750;9.078;2022-12-07T00:53:41;2.30;99.90
2300;DHT22;1158;48.750;9.078;2022-12-07T00:56:11;2.30;99.90
2300;DHT22;1158;48.750;9.078;2022-12-07T00:58:38;2.20;99.90
2300;DHT22;1158;48.750;9.078;2022-12-07T01:01:06;2.20;99.90
2300;DHT22;1158;48.750;9.078;2022-12-07T01:03:35;2.20;99.90
2300;DHT22;1158;48.750;9.078;2022-12-07T01:06:03;2.20;99.90
2300;DHT22;1158;48.750;9.078;2022-12-07T01:08:30;2.20;99.90
2300;DHT22;1158;48.750;9.078;2022-12-07T01:11:00;2.20;99.90
2300;DHT22;1158;48.750;9.078;2022-12-07T01:13:28;2.20;99.90
2300;DHT22;1158;48.750;9.078;2022-12-07T01:15:57;2.20;99.90
2300;DHT22;1158;48.750;9.078;2022-12-07T01:18:25;2.20;99.90
2300;DHT22;1158;48.750;9.078;2022-12-07T01:21:04;2.20;99.90
2300;DHT22;1158;48.750;9.078;2022-12-07T01:23:32;2.10;99.90
2300;DHT22;1158;48.750;9.078;2022-12-07T01:26:01;2.10;99.90
2300;DHT22;1158;48.750;9.078;2022-12-07T01:28:28;2.20;99.90
2300;DHT22;1158;48.750;9.078;2022-12-07T01:30:56;2.10;99.90
2300;DHT22;1158;48.750;9.078;2022-12-07T01:33:23;2.10;99.90
2300;DHT22;1158;48.750;9.078;2022-12-07T01:35:50;2.10;99.90
2300;DHT22;1158;48.750;9.078;2022-12-07T01:38:18;2.10;99.90
2300;DHT22;1158;48.750;9.078;2022-12-07T01:40:45;2.10;99.90
2300;DHT22;1158;48.750;9.078;2022-12-07T01:43:23;2.10;99.90
2300;DHT22;1158;48.750;9.078;2022-12-07T01:45:50;2.10;99.90
2300;DHT22;1158;48.750;9.078;2022-12-07T01:48:20;2.10;99.90
2300;DHT22;1158;48.750;9.078;2022-12-07T01:50:48;2.10;99.90
2300;DHT22;1158;48.750;9.078;2022-12-07T01:53:18;2.00;99.90
2300;DHT22;1158;48.750;9.078;2022-12-07T01:55:49;2.00;99.90
2300;DHT22;1158;48.750;9.078;2022-12-07T01:58:18;2.00;99.90
2300;DHT22;1158;48.750;9.078;2022-12-07T02:00:46;2.00;99.90
2300;DHT22;1158;48.750;9.078;2022-12-07T02:03:16;2.00;99.90
2300;DHT22;1158;48.750;9.078;2022-12-07T02:05:46;2.00;99.90
2300;DHT22;1158;48.750;9.078;2022-12-07T02:08:15;2.00;99.90
2300;DHT22;1158;48.750;9.078;2022-12-07T02:10:44;2.00;99.90
2300;DHT22;1158;48.750;9.078;2022-12-07T02:13:13;2.00;99.90
2300;DHT22;1158;48.750;9.078;2022-12-07T02:15:58;2.00;99.90
2300;DHT22;1158;48.750;9.078;2022-12-07T02:18:41;2.00;99.90
2300;DHT22;1158;48.750;9.078;2022-12-07T02:21:12;1.90;99.90
2300;DHT22;1158;48.750;9.078;2022-12-07T02:24:00;2.00;99.90
2300;DHT22;1158;48.750;9.078;2022-12-07T02:29:39;1.90;99.90
2300;DHT22;1158;48.750;9.078;2022-12-07T02:32:12;1.90;99.90
2300;DHT22;1158;48.750;9.078;2022-12-07T02:34:46;1.90;99.90
2300;DHT22;1158;48.750;9.078;2022-12-07T02:37:21;1.90;99.90
2300;DHT22;1158;48.750;9.078;2022-12-07T02:39:55;1.90;99.90
2300;DHT22;1158;48.750;9.078;2022-12-07T02:42:28;1.90;99.90
2300;DHT22;1158;48.750;9.078;2022-12-07T02:44:58;1.90;99.90
2300;DHT22;1158;48.750;9.078;2022-12-07T02:47:27;1.80;99.90
2300;DHT22;1158;48.750;9.078;2022-12-07T02:49:55;1.80;99.90
2300;DHT22;1158;48.750;9.078;2022-12-07T02:52:22;1.90;99.90
2300;DHT22;1158;48.750;9.078;2022-12-07T02:54:49;1.90;99.90
2300;DHT22;1158;48.750;9.078;2022-12-07T02:57:35;1.80;99.90
2300;DHT22;1158;48.750;9.078;2022-12-07T03:00:08;1.80;99.90
2300;DHT22;1158;48.750;9.078;2022-12-07T03:02:41;1.80;99.90
2300;DHT22;1158;48.750;9.078;2022-12-07T03:05:25;1.70;99.90
2300;DHT22;1158;48.750;9.078;2022-12-07T03:08:01;1.70;99.90
2300;DHT22;1158;48.750;9.078;2022-12-07T03:10:38;1.70;99.90
2300;DHT22;1158;48.750;9.078;2022-12-07T03:13:09;1.70;99.90
2300;DHT22;1158;48.750;9.078;2022-12-07T03:15:43;1.70;99.90
2300;DHT22;1158;48.750;9.078;2022-12-07T03:18:15;1.70;99.90
2300;DHT22;1158;48.750;9.078;2022-12-07T03:20:44;1.70;99.90
2300;DHT22;1158;48.750;9.078;2022-12-07T03:23:12;1.70;99.90
2300;DHT22;1158;48.750;9.078;2022-12-07T03:25:45;1.70;99.90
2300;DHT22;1158;48.750;9.078;2022-12-07T03:28:14;1.70;99.90
2300;DHT22;1158;48.750;9.078;2022-12-07T03:30:47;1.70;99.90
2300;DHT22;1158;48.750;9.078;2022-12-07T03:33:19;1.60;99.90
2300;DHT22;1158;48.750;9.078;2022-12-07T03:35:49;1.60;99.90
2300;DHT22;1158;48.750;9.078;2022-12-07T03:38:20;1.60;99.90
2300;DHT22;1158;48.750;9.078;2022-12-07T03:40:50;1.60;99.90
2300;DHT22;1158;48.750;9.078;2022-12-07T03:43:19;1.60;99.90
2300;DHT22;1158;48.750;9.078;2022-12-07T03:45:55;1.60;99.90
2300;DHT22;1158;48.750;9.078;2022-12-07T03:48:27;1.60;99.90
2300;DHT22;1158;48.750;9.078;2022-12-07T03:51:01;1.60;99.90
2300;DHT22;1158;48.750;9.078;2022-12-07T03:53:33;1.60;99.90
2300;DHT22;1158;48.750;9.078;2022-12-07T03:56:02;1.50;99.90
2300;DHT22;1158;48.750;9.078;2022-12-07T03:58:30;1.50;99.90
2300;DHT22;1158;48.750;9.078;2022-12-07T04:00:58;1.60;99.90
2300;DHT22;1158;48.750;9.078;2022-12-07T04:03:25;1.60;99.90
2300;DHT22;1158;48.750;9.078;2022-12-07T04:05:51;1.50;99.90
2300;DHT22;1158;48.750;9.078;2022-12-07T04:08:18;1.50;99.90
2300;DHT22;1158;48.750;9.078;2022-12-07T04:10:46;1.50;99.90
2300;DHT22;1158;48.750;9.078;2022-12-07T04:13:13;1.50;99.90
2300;DHT22;1158;48.750;9.078;2022-12-07T04:15:39;1.50;99.90
2300;DHT22;1158;48.750;9.078;2022-12-07T04:18:07;1.50;99.90
2300;DHT22;1158;48.750;9.078;2022-12-07T04:20:34;1.40;99.90
2300;DHT22;1158;48.750;9.078;2022-12-07T04:23:01;1.40;99.90
2300;DHT22;1158;48.750;9.078;2022-12-07T04:25:28;1.30;99.90
2300;DHT22;1158;48.750;9.078;2022-12-07T04:27:54;1.30;99.90
2300;DHT22;1158;48.750;9.078;2022-12-07T04:30:21;1.30;99.90
2300;DHT22;1158;48.750;9.078;2022-12-07T04:32:48;1.30;99.90
2300;DHT22;1158;48.750;9.078;2022-12-07T04:35:16;1.30;99.90
2300;DHT22;1158;48.750;9.078;2022-12-07T04:37:43;1.30;99.90
2300;DHT22;1158;48.750;9.078;2022-12-07T04:40:10;1.30;99.90
2300;DHT22;1158;48.750;9.078;2022-12-07T04:42:39;1.30;99.90
2300;DHT22;1158;48.750;9.078;2022-12-07T04:45:07;1.30;99.90
2300;DHT22;1158;48.750;9.078;2022-12-07T04:47:35;1.40;99.90
2300;DHT22;1158;48.750;9.078;2022-12-07T04:50:03;1.30;99.90
2300;DHT22;1158;48.750;9.078;2022-12-07T04:52:31;1.30;99.90
2300;DHT22;1158;48.750;9.078;2022-12-07T04:54:58;1.30;99.90
2300;DHT22;1158;48.750;9.078;2022-12-07T04:57:24;1.30;99.90
2300;DHT22;1158;48.750;9.078;2022-12-07T04:59:51;1.30;99.90
2300;DHT22;1158;48.750;9.078;2022-12-07T05:02:18;1.30;99.90
2300;DHT22;1158;48.750;9.078;2022-12-07T05:04:45;1.20;99.90
2300;DHT22;1158;48.750;9.078;2022-12-07T05:07:11;1.20;99.90
2300;DHT22;1158;48.750;9.078;2022-12-07T05:09:39;1.20;99.90
2300;DHT22;1158;48.750;9.078;2022-12-07T05:12:06;1.20;99.90
2300;DHT22;1158;48.750;9.078;2022-12-07T05:14:33;1.10;99.90
2300;DHT22;1158;48.750;9.078;2022-12-07T05:17:00;1.10;99.90
2300;DHT22;1158;48.750;9.078;2022-12-07T05:19:26;1.10;99.90
2300;DHT22;1158;48.750;9.078;2022-12-07T05:21:53;1.10;99.90
2300;DHT22;1158;48.750;9.078;2022-12-07T05:24:20;1.10;99.90
2300;DHT22;1158;48.750;9.078;2022-12-07T05:26:48;1.10;99.90
2300;DHT22;1158;48.750;9.078;2022-12-07T05:29:16;1.00;99.90
2300;DHT22;1158;48.750;9.078;2022-12-07T05:31:44;0.90;99.90
2300;DHT22;1158;48.750;9.078;2022-12-07T05:34:11;0.90;99.90
2300;DHT22;1158;48.750;9.078;2022-12-07T05:36:38;0.70;99.90
2300;DHT22;1158;48.750;9.078;2022-12-07T05:39:04;0.60;99.90
2300;DHT22;1158;48.750;9.078;2022-12-07T05:41:31;0.40;99.90
2300;DHT22;1158;48.750;9.078;2022-12-07T05:44:17;0.40;99.90
2300;DHT22;1158;48.750;9.078;2022-12-07T05:46:44;0.30;99.90
2300;DHT22;1158;48.750;9.078;2022-12-07T05:49:10;0.20;99.90
2300;DHT22;1158;48.750;9.078;2022-12-07T05:51:37;0.20;99.90
2300;DHT22;1158;48.750;9.078;2022-12-07T05:54:04;0.20;99.90
2300;DHT22;1158;48.750;9.078;2022-12-07T05:56:31;0.10;99.90
2300;DHT22;1158;48.750;9.078;2022-12-07T05:58:57;0.00;99.90
2300;DHT22;1158;48.750;9.078;2022-12-07T06:01:43;0.00;99.90
2300;DHT22;1158;48.750;9.078;2022-12-07T06:04:10;0.00;99.90
2300;DHT22;1158;48.750;9.078;2022-12-07T06:06:37;0.10;99.90
2300;DHT22;1158;48.750;9.078;2022-12-07T06:09:04;0.00;99.90
2300;DHT22;1158;48.750;9.078;2022-12-07T06:11:30;0.10;99.90
2300;DHT22;1158;48.750;9.078;2022-12-07T06:14:15;0.20;99.90
2300;DHT22;1158;48.750;9.078;2022-12-07T06:16:43;0.20;99.90
2300;DHT22;1158;48.750;9.078;2022-12-07T06:19:10;0.20;99.90
2300;DHT22;1158;48.750;9.078;2022-12-07T06:21:36;0.20;99.90
2300;DHT22;1158;48.750;9.078;2022-12-07T06:24:04;0.10;99.90
2300;DHT22;1158;48.750;9.078;2022-12-07T06:26:31;0.10;99.90
2300;DHT22;1158;48.750;9.078;2022-12-07T06:28:57;0.00;99.90
2300;DHT22;1158;48.750;9.078;2022-12-07T06:31:24;0.10;99.90
2300;DHT22;1158;48.750;9.078;2022-12-07T06:33:57;0.10;99.90
2300;DHT22;1158;48.750;9.078;2022-12-07T06:36:24;0.20;99.90
2300;DHT22;1158;48.750;9.078;2022-12-07T06:38:50;0.20;99.90
2300;DHT22;1158;48.750;9.078;2022-12-07T06:41:17;0.30;99.90
2300;DHT22;1158;48.750;9.078;2022-12-07T06:43:44;0.30;99.90
2300;DHT22;1158;48.750;9.078;2022-12-07T06:46:11;0.40;99.90
2300;DHT22;1158;48.750;9.078;2022-12-07T06:48:37;0.40;99.90
2300;DHT22;1158;48.750;9.078;2022-12-07T06:51:06;0.40;99.90
2300;DHT22;1158;48.750;9.078;2022-12-07T06:53:32;0.40;99.90
2300;DHT22;1158;48.750;9.078;2022-12-07T06:55:59;0.30;99.90
2300;DHT22;1158;48.750;9.078;2022-12-07T06:58:26;0.40;99.90
2300;DHT22;1158;48.750;9.078;2022-12-07T07:00:53;0.40;99.90
2300;DHT22;1158;48.750;9.078;2022-12-07T07:03:20;0.40;99.90
2300;DHT22;1158;48.750;9.078;2022-12-07T07:05:47;0.40;99.90
2300;DHT22;1158;48.750;9.078;2022-12-07T07:08:15;0.40;99.90
2300;DHT22;1158;48.750;9.078;2022-12-07T07:10:42;0.40;99.90
2300;DHT22;1158;48.750;9.078;2022-12-07T07:13:09;0.40;99.90
2300;DHT22;1158;48.750;9.078;2022-12-07T07:15:37;0.50;99.90
2300;DHT22;1158;48.750;9.078;2022-12-07T07:18:04;0.50;99.90
2300;DHT22;1158;48.750;9.078;2022-12-07T07:20:31;0.50;99.90
2300;DHT22;1158;48.750;9.078;2022-12-07T07:22:58;0.60;99.90
2300;DHT22;1158;48.750;9.078;2022-12-07T07:25:26;0.70;99.90
2300;DHT22;1158;48.750;9.078;2022-12-07T07:27:52;0.70;99.90
2300;DHT22;1158;48.750;9.078;2022-12-07T07:30:19;0.80;99.90
2300;DHT22;1158;48.750;9.078;2022-12-07T07:32:46;0.90;99.90
2300;DHT22;1158;48.750;9.078;2022-12-07T07:35:13;0.90;99.90
2300;DHT22;1158;48.750;9.078;2022-12-07T07:37:39;1.00;99.90
2300;DHT22;1158;48.750;9.078;2022-12-07T07:40:07;1.00;99.90
2300;DHT22;1158;48.750;9.078;2022-12-07T07:42:36;1.00;99.90
2300;DHT22;1158;48.750;9.078;2022-12-07T07:45:03;1.00;99.90
2300;DHT22;1158;48.750;9.078;2022-12-07T07:47:30;1.00;99.90
2300;DHT22;1158;48.750;9.078;2022-12-07T07:49:57;1.10;99.90
2300;DHT22;1158;48.750;9.078;2022-12-07T07:52:23;1.10;99.90
2300;DHT22;1158;48.750;9.078;2022-12-07T07:54:50;1.10;99.90
2300;DHT22;1158;48.750;9.078;2022-12-07T07:57:17;1.20;99.90
2300;DHT22;1158;48.750;9.078;2022-12-07T07:59:45;1.20;99.90
2300;DHT22;1158;48.750;9.078;2022-12-07T08:02:14;1.30;99.90
2300;DHT22;1158;48.750;9.078;2022-12-07T08:04:41;1.20;99.90
2300;DHT22;1158;48.750;9.078;2022-12-07T08:07:08;1.30;99.90
2300;DHT22;1158;48.750;9.078;2022-12-07T08:09:35;1.40;99.90
2300;DHT22;1158;48.750;9.078;2022-12-07T08:12:02;1.40;99.90
2300;DHT22;1158;48.750;9.078;2022-12-07T08:14:29;1.50;99.90
2300;DHT22;1158;48.750;9.078;2022-12-07T08:16:57;1.60;99.90
2300;DHT22;1158;48.750;9.078;2022-12-07T08:19:24;1.60;99.90
2300;DHT22;1158;48.750;9.078;2022-12-07T08:21:51;1.70;99.90
2300;DHT22;1158;48.750;9.078;2022-12-07T08:24:18;1.80;99.90
2300;DHT22;1158;48.750;9.078;2022-12-07T08:26:45;1.90;99.90
2300;DHT22;1158;48.750;9.078;2022-12-07T08:29:11;2.00;99.90
2300;DHT22;1158;48.750;9.078;2022-12-07T08:31:38;2.10;99.90
2300;DHT22;1158;48.750;9.078;2022-12-07T08:34:06;2.10;99.90
2300;DHT22;1158;48.750;9.078;2022-12-07T08:36:33;2.10;99.90
2300;DHT22;1158;48.750;9.078;2022-12-07T08:38:59;2.20;99.90
2300;DHT22;1158;48.750;9.078;2022-12-07T08:41:26;2.30;99.90
2300;DHT22;1158;48.750;9.078;2022-12-07T08:43:53;2.40;99.90
2300;DHT22;1158;48.750;9.078;2022-12-07T08:46:23;2.50;99.90
2300;DHT22;1158;48.750;9.078;2022-12-07T08:48:54;2.50;99.90
2300;DHT22;1158;48.750;9.078;2022-12-07T08:51:23;2.60;99.90
2300;DHT22;1158;48.750;9.078;2022-12-07T08:53:51;2.70;99.90
2300;DHT22;1158;48.750;9.078;2022-12-07T08:56:19;2.90;99.90
2300;DHT22;1158;48.750;9.078;2022-12-07T08:58:47;3.00;99.90
2300;DHT22;1158;48.750;9.078;2022-12-07T09:01:14;3.10;99.90
2300;DHT22;1158;48.750;9.078;2022-12-07T09:03:41;3.20;99.90
2300;DHT22;1158;48.750;9.078;2022-12-07T09:06:08;3.20;99.90
2300;DHT22;1158;48.750;9.078;2022-12-07T09:08:39;3.30;99.90
2300;DHT22;1158;48.750;9.078;2022-12-07T09:11:06;3.20;99.90
2300;DHT22;1158;48.750;9.078;2022-12-07T09:13:33;3.20;99.90
2300;DHT22;1158;48.750;9.078;2022-12-07T09:16:00;3.30;99.90
2300;DHT22;1158;48.750;9.078;2022-12-07T09:18:27;3.30;99.90
2300;DHT22;1158;48.750;9.078;2022-12-07T09:20:53;3.20;99.90
2300;DHT22;1158;48.750;9.078;2022-12-07T09:23:20;3.30;99.90
2300;DHT22;1158;48.750;9.078;2022-12-07T09:25:48;3.40;99.90
2300;DHT22;1158;48.750;9.078;2022-12-07T09:28:15;3.40;99.90
2300;DHT22;1158;48.750;9.078;2022-12-07T09:30:46;3.50;99.90
2300;DHT22;1158;48.750;9.078;2022-12-07T09:33:13;3.50;99.90
2300;DHT22;1158;48.750;9.078;2022-12-07T09:35:44;3.50;99.90
2300;DHT22;1158;48.750;9.078;2022-12-07T09:38:11;3.60;99.90
2300;DHT22;1158;48.750;9.078;2022-12-07T09:40:37;3.60;99.90
2300;DHT22;1158;48.750;9.078;2022-12-07T09:43:12;3.50;99.90
2300;DHT22;1158;48.750;9.078;2022-12-07T09:45:39;3.60;99.90
2300;DHT22;1158;48.750;9.078;2022-12-07T09:48:15;3.70;99.90
2300;DHT22;1158;48.750;9.078;2022-12-07T09:50:43;3.90;99.90
2300;DHT22;1158;48.750;9.078;2022-12-07T09:53:14;4.00;99.90
2300;DHT22;1158;48.750;9.078;2022-12-07T09:55:43;4.30;99.90
2300;DHT22;1158;48.750;9.078;2022-12-07T09:58:19;4.10;99.90
2300;DHT22;1158;48.750;9.078;2022-12-07T10:00:46;4.20;99.90
2300;DHT22;1158;48.750;9.078;2022-12-07T10:03:13;4.20;99.90
2300;DHT22;1158;48.750;9.078;2022-12-07T10:05:44;4.10;99.90
2300;DHT22;1158;48.750;9.078;2022-12-07T10:08:13;4.20;99.90
2300;DHT22;1158;48.750;9.078;2022-12-07T10:10:41;4.40;99.90
2300;DHT22;1158;48.750;9.078;2022-12-07T10:13:10;4.70;99.90
2300;DHT22;1158;48.750;9.078;2022-12-07T10:15:48;4.70;99.90
2300;DHT22;1158;48.750;9.078;2022-12-07T10:18:20;4.70;99.90
2300;DHT22;1158;48.750;9.078;2022-12-07T10:20:48;4.50;99.90
2300;DHT22;1158;48.750;9.078;2022-12-07T10:23:17;4.30;99.90
2300;DHT22;1158;48.750;9.078;2022-12-07T10:25:45;4.50;99.90
2300;DHT22;1158;48.750;9.078;2022-12-07T10:28:15;4.70;99.90
2300;DHT22;1158;48.750;9.078;2022-12-07T10:30:52;4.50;99.90
2300;DHT22;1158;48.750;9.078;2022-12-07T10:33:29;4.40;99.90
2300;DHT22;1158;48.750;9.078;2022-12-07T10:35:57;4.40;99.90
2300;DHT22;1158;48.750;9.078;2022-12-07T10:38:25;4.40;99.90
2300;DHT22;1158;48.750;9.078;2022-12-07T10:41:03;4.40;99.90
2300;DHT22;1158;48.750;9.078;2022-12-07T10:43:30;4.40;99.90
2300;DHT22;1158;48.750;9.078;2022-12-07T10:46:18;4.40;99.90
2300;DHT22;1158;48.750;9.078;2022-12-07T10:48:54;4.50;99.90
2300;DHT22;1158;48.750;9.078;2022-12-07T10:51:29;4.50;99.90
2300;DHT22;1158;48.750;9.078;2022-12-07T10:54:07;4.50;99.90
2300;DHT22;1158;48.750;9.078;2022-12-07T10:56:55;4.60;99.90
2300;DHT22;1158;48.750;9.078;2022-12-07T10:59:52;4.60;99.90
2300;DHT22;1158;48.750;9.078;2022-12-07T11:02:41;4.70;99.90
2300;DHT22;1158;48.750;9.078;2022-12-07T11:05:18;4.90;99.90
2300;DHT22;1158;48.750;9.078;2022-12-07T11:07:55;4.90;99.90
2300;DHT22;1158;48.750;9.078;2022-12-07T11:10:30;4.80;99.90
2300;DHT22;1158;48.750;9.078;2022-12-07T11:13:23;4.90;99.90
2300;DHT22;1158;48.750;9.078;2022-12-07T11:16:07;4.80;99.90
2300;DHT22;1158;48.750;9.078;2022-12-07T11:18:43;4.90;99.90
2300;DHT22;1158;48.750;9.078;2022-12-07T11:21:20;4.90;99.90
2300;DHT22;1158;48.750;9.078;2022-12-07T11:23:52;4.80;99.90
2300;DHT22;1158;48.750;9.078;2022-12-07T11:26:41;4.80;99.90
2300;DHT22;1158;48.750;9.078;2022-12-07T11:32:25;4.60;99.90
2300;DHT22;1158;48.750;9.078;2022-12-07T11:35:05;4.60;99.90
2300;DHT22;1158;48.750;9.078;2022-12-07T11:37:36;4.60;99.90
2300;DHT22;1158;48.750;9.078;2022-12-07T11:40:08;4.50;99.90
2300;DHT22;1158;48.750;9.078;2022-12-07T11:42:42;4.30;99.90
2300;DHT22;1158;48.750;9.078;2022-12-07T11:45:16;4.30;99.90
2300;DHT22;1158;48.750;9.078;2022-12-07T11:47:48;4.40;99.90
2300;DHT22;1158;48.750;9.078;2022-12-07T11:50:26;4.40;99.90
2300;DHT22;1158;48.750;9.078;2022-12-07T11:52:57;4.60;99.90
2300;DHT22;1158;48.750;9.078;2022-12-07T11:55:29;4.60;99.90
2300;DHT22;1158;48.750;9.078;2022-12-07T11:58:04;4.70;99.90
2300;DHT22;1158;48.750;9.078;2022-12-07T12:00:32;4.70;99.90
2300;DHT22;1158;48.750;9.078;2022-12-07T12:03:03;4.60;99.90
2300;DHT22;1158;48.750;9.078;2022-12-07T12:05:32;4.60;99.90
2300;DHT22;1158;48.750;9.078;2022-12-07T12:08:04;4.60;99.90
2300;DHT22;1158;48.750;9.078;2022-12-07T12:10:53;4.50;99.90
2300;DHT22;1158;48.750;9.078;2022-12-07T12:13:33;4.50;99.90
2300;DHT22;1158;48.750;9.078;2022-12-07T12:16:18;4.50;99.90
2300;DHT22;1158;48.750;9.078;2022-12-07T12:19:10;4.40;99.90
2300;DHT22;1158;48.750;9.078;2022-12-07T12:21:41;4.40;99.90
2300;DHT22;1158;48.750;9.078;2022-12-07T12:24:12;4.30;99.90
2300;DHT22;1158;48.750;9.078;2022-12-07T12:26:49;4.20;99.90
2300;DHT22;1158;48.750;9.078;2022-12-07T12:29:21;4.10;99.90
2300;DHT22;1158;48.750;9.078;2022-12-07T12:32:05;4.10;99.90
2300;DHT22;1158;48.750;9.078;2022-12-07T12:34:39;4.00;99.90
2300;DHT22;1158;48.750;9.078;2022-12-07T12:37:41;3.90;99.90
2300;DHT22;1158;48.750;9.078;2022-12-07T12:40:43;3.90;99.90
2300;DHT22;1158;48.750;9.078;2022-12-07T12:43:42;3.90;99.90
2300;DHT22;1158;48.750;9.078;2022-12-07T12:46:37;3.80;99.90
2300;DHT22;1158;48.750;9.078;2022-12-07T12:49:36;3.60;99.90
2300;DHT22;1158;48.750;9.078;2022-12-07T12:58:38;3.70;99.90
2300;DHT22;1158;48.750;9.078;2022-12-07T13:01:38;3.80;99.90
2300;DHT22;1158;48.750;9.078;2022-12-07T13:04:37;5.10;99.90
2300;DHT22;1158;48.750;9.078;2022-12-07T13:07:13;5.50;99.90
2300;DHT22;1158;48.750;9.078;2022-12-07T13:09:43;5.20;99.90
2300;DHT22;1158;48.750;9.078;2022-12-07T13:12:14;5.00;99.90
2300;DHT22;1158;48.750;9.078;2022-12-07T13:14:52;4.80;99.90
2300;DHT22;1158;48.750;9.078;2022-12-07T13:20:49;4.50;99.90
2300;DHT22;1158;48.750;9.078;2022-12-07T13:23:26;4.40;99.90
2300;DHT22;1158;48.750;9.078;2022-12-07T13:25:59;4.40;99.90
2300;DHT22;1158;48.750;9.078;2022-12-07T13:28:33;4.20;99.90
2300;DHT22;1158;48.750;9.078;2022-12-07T13:31:32;4.10;99.90
2300;DHT22;1158;48.750;9.078;2022-12-07T13:34:00;4.10;99.90
2300;DHT22;1158;48.750;9.078;2022-12-07T13:36:31;4.20;99.90
2300;DHT22;1158;48.750;9.078;2022-12-07T13:39:17;4.20;99.90
2300;DHT22;1158;48.750;9.078;2022-12-07T13:41:46;4.20;99.90
2300;DHT22;1158;48.750;9.078;2022-12-07T13:44:18;4.20;99.90
2300;DHT22;1158;48.750;9.078;2022-12-07T13:46:50;4.10;99.90
2300;DHT22;1158;48.750;9.078;2022-12-07T13:49:24;4.10;99.90
2300;DHT22;1158;48.750;9.078;2022-12-07T13:51:52;4.10;99.90
2300;DHT22;1158;48.750;9.078;2022-12-07T13:54:20;4.00;99.90
2300;DHT22;1158;48.750;9.078;2022-12-07T13:56:50;3.90;99.90
2300;DHT22;1158;48.750;9.078;2022-12-07T13:59:20;3.80;99.90
2300;DHT22;1158;48.750;9.078;2022-12-07T14:01:49;3.90;99.90
2300;DHT22;1158;48.750;9.078;2022-12-07T14:04:17;3.90;99.90
2300;DHT22;1158;48.750;9.078;2022-12-07T14:06:49;4.00;99.90
2300;DHT22;1158;48.750;9.078;2022-12-07T14:09:19;4.00;99.90
2300;DHT22;1158;48.750;9.078;2022-12-07T14:11:49;3.90;99.90
2300;DHT22;1158;48.750;9.078;2022-12-07T14:14:20;3.80;99.90
2300;DHT22;1158;48.750;9.078;2022-12-07T14:17:00;3.80;99.90
2300;DHT22;1158;48.750;9.078;2022-12-07T14:19:48;3.80;99.90
2300;DHT22;1158;48.750;9.078;2022-12-07T14:22:22;3.70;99.90
2300;DHT22;1158;48.750;9.078;2022-12-07T14:24:49;3.70;99.90
2300;DHT22;1158;48.750;9.078;2022-12-07T14:27:20;3.60;99.90
2300;DHT22;1158;48.750;9.078;2022-12-07T14:29:49;3.70;99.90
2300;DHT22;1158;48.750;9.078;2022-12-07T14:32:25;3.60;99.90
2300;DHT22;1158;48.750;9.078;2022-12-07T14:35:00;3.50;99.90
2300;DHT22;1158;48.750;9.078;2022-12-07T14:37:28;3.50;99.90
2300;DHT22;1158;48.750;9.078;2022-12-07T14:39:55;3.50;99.90
2300;DHT22;1158;48.750;9.078;2022-12-07T14:42:24;3.50;99.90
2300;DHT22;1158;48.750;9.078;2022-12-07T14:44:54;3.50;99.90
2300;DHT22;1158;48.750;9.078;2022-12-07T14:47:20;3.40;99.90
2300;DHT22;1158;48.750;9.078;2022-12-07T14:49:47;3.40;99.90
2300;DHT22;1158;48.750;9.078;2022-12-07T14:52:18;3.40;99.90
2300;DHT22;1158;48.750;9.078;2022-12-07T14:54:46;3.50;99.90
2300;DHT22;1158;48.750;9.078;2022-12-07T14:57:13;3.40;99.90
2300;DHT22;1158;48.750;9.078;2022-12-07T14:59:39;3.40;99.90
2300;DHT22;1158;48.750;9.078;2022-12-07T15:02:09;3.30;99.90
2300;DHT22;1158;48.750;9.078;2022-12-07T15:04:37;3.30;99.90
2300;DHT22;1158;48.750;9.078;2022-12-07T15:07:08;3.20;99.90
2300;DHT22;1158;48.750;9.078;2022-12-07T15:09:35;3.20;99.90
2300;DHT22;1158;48.750;9.078;2022-12-07T15:12:02;3.20;99.90
2300;DHT22;1158;48.750;9.078;2022-12-07T15:14:29;3.20;99.90
2300;DHT22;1158;48.750;9.078;2022-12-07T15:16:56;3.10;99.90
2300;DHT22;1158;48.750;9.078;2022-12-07T15:19:24;3.10;99.90
2300;DHT22;1158;48.750;9.078;2022-12-07T15:21:53;3.10;99.90
2300;DHT22;1158;48.750;9.078;2022-12-07T15:24:19;3.10;99.90
2300;DHT22;1158;48.750;9.078;2022-12-07T15:26:46;3.00;99.90
2300;DHT22;1158;48.750;9.078;2022-12-07T15:29:13;2.90;99.90
2300;DHT22;1158;48.750;9.078;2022-12-07T15:31:41;2.80;99.90
2300;DHT22;1158;48.750;9.078;2022-12-07T15:34:08;2.90;99.90
2300;DHT22;1158;48.750;9.078;2022-12-07T15:36:36;2.80;99.90
2300;DHT22;1158;48.750;9.078;2022-12-07T15:39:03;2.80;99.90
2300;DHT22;1158;48.750;9.078;2022-12-07T15:41:30;2.70;99.90
2300;DHT22;1158;48.750;9.078;2022-12-07T15:43:57;2.70;99.90
2300;DHT22;1158;48.750;9.078;2022-12-07T15:46:42;2.60;99.90
2300;DHT22;1158;48.750;9.078;2022-12-07T15:49:11;2.60;99.90
2300;DHT22;1158;48.750;9.078;2022-12-07T15:51:40;2.60;99.90
2300;DHT22;1158;48.750;9.078;2022-12-07T15:54:11;2.60;99.90
2300;DHT22;1158;48.750;9.078;2022-12-07T15:56:38;2.60;99.90
2300;DHT22;1158;48.750;9.078;2022-12-07T15:59:04;2.60;99.90
2300;DHT22;1158;48.750;9.078;2022-12-07T16:01:31;2.60;99.90
2300;DHT22;1158;48.750;9.078;2022-12-07T16:03:58;2.50;99.90
2300;DHT22;1158;48.750;9.078;2022-12-07T16:06:25;2.40;99.90
2300;DHT22;1158;48.750;9.078;2022-12-07T16:08:53;2.40;99.90
2300;DHT22;1158;48.750;9.078;2022-12-07T16:11:20;2.30;99.90
2300;DHT22;1158;48.750;9.078;2022-12-07T16:13:47;2.40;99.90
2300;DHT22;1158;48.750;9.078;2022-12-07T16:16:16;2.30;99.90
2300;DHT22;1158;48.750;9.078;2022-12-07T16:18:44;2.20;99.90
2300;DHT22;1158;48.750;9.078;2022-12-07T16:21:11;2.20;99.90
2300;DHT22;1158;48.750;9.078;2022-12-07T16:23:38;2.20;99.90
2300;DHT22;1158;48.750;9.078;2022-12-07T16:26:08;2.20;99.90
2300;DHT22;1158;48.750;9.078;2022-12-07T16:28:35;2.10;99.90
2300;DHT22;1158;48.750;9.078;2022-12-07T16:31:07;2.10;99.90
2300;DHT22;1158;48.750;9.078;2022-12-07T16:33:35;2.00;99.90
2300;DHT22;1158;48.750;9.078;2022-12-07T16:36:03;2.00;99.90
2300;DHT22;1158;48.750;9.078;2022-12-07T16:38:30;1.90;99.90
2300;DHT22;1158;48.750;9.078;2022-12-07T16:40:57;1.80;99.90
2300;DHT22;1158;48.750;9.078;2022-12-07T16:43:25;1.70;99.90
2300;DHT22;1158;48.750;9.078;2022-12-07T16:45:52;1.60;99.90
2300;DHT22;1158;48.750;9.078;2022-12-07T16:48:18;1.50;99.90
2300;DHT22;1158;48.750;9.078;2022-12-07T16:50:46;1.50;99.90
2300;DHT22;1158;48.750;9.078;2022-12-07T16:53:13;1.50;99.90
2300;DHT22;1158;48.750;9.078;2022-12-07T16:55:42;1.40;99.90